sensor_id;sensor_type;location;lat;lon;timestamp;temperature;humidity
34153;DHT22;20426;48.372;10.888;2023-05-14T00:00:15;11.60;99.90
34153;DHT22;20426;48.372;10.888;2023-05-14T00:00:46;11.60;99.90
34153;DHT22;20426;48.372;10.888;2023-05-14T00:01:17;11.60;99.90
34153;DHT22;20426;48.372;10.888;2023-05-14T00:01:48;11.60;99.90
34153;DHT22;20426;48.372;10.888;2023-05-14T00:02:21;11.60;99.90
34153;DHT22;20426;48.372;10.888;2023-05-14T00:02:52;11.60;99.90
34153;DHT22;20426;48.372;10.888;2023-05-14T00:03:22;11.60;99.90
34153;DHT22;20426;48.372;10.888;2023-05-14T00:03:53;11.60;99.90
34153;DHT22;20426;48.372;10.888;2023-05-14T00:04:24;11.60;99.90
34153;DHT22;20426;48.372;10.888;2023-05-14T00:04:55;11.60;99.90
34153;DHT22;20426;48.372;10.888;2023-05-14T00:05:26;11.60;99.90
34153;DHT22;20426;48.372;10.888;2023-05-14T00:05:56;11.50;99.90
34153;DHT22;20426;48.372;10.888;2023-05-14T00:06:27;11.50;99.90
34153;DHT22;20426;48.372;10.888;2023-05-14T00:06:58;11.60;99.90
34153;DHT22;20426;48.372;10.888;2023-05-14T00:07:29;11.60;99.90
34153;DHT22;20426;48.372;10.888;2023-05-14T00:08:00;11.60;99.90
34153;DHT22;20426;48.372;10.888;2023-05-14T00:08:30;11.60;99.90
34153;DHT22;20426;48.372;10.888;2023-05-14T00:09:01;11.60;99.90
34153;DHT22;20426;48.372;10.888;2023-05-14T00:09:32;11.60;99.90
34153;DHT22;20426;48.372;10.888;2023-05-14T00:10:03;11.60;99.90
34153;DHT22;20426;48.372;10.888;2023-05-14T00:10:34;11.60;99.90
34153;DHT22;20426;48.372;10.888;2023-05-14T00:11:04;11.60;99.90
34153;DHT22;20426;48.372;10.888;2023-05-14T00:11:35;11.60;99.90
34153;DHT22;20426;48.372;10.888;2023-05-14T00:12:06;11.60;99.90
34153;DHT22;20426;48.372;10.888;2023-05-14T00:12:37;11.50;99.90
34153;DHT22;20426;48.372;10.888;2023-05-14T00:13:08;11.50;99.90
34153;DHT22;20426;48.372;10.888;2023-05-14T00:13:39;11.60;99.90
34153;DHT22;20426;48.372;10.888;2023-05-14T00:14:09;11.60;99.90
34153;DHT22;20426;48.372;10.888;2023-05-14T00:14:40;11.60;99.90
34153;DHT22;20426;48.372;10.888;2023-05-14T00:15:11;11.60;99.90
34153;DHT22;20426;48.372;10.888;2023-05-14T00:15:42;11.60;99.90
34153;DHT22;20426;48.372;10.888;2023-05-14T00:16:12;11.50;99.90
34153;DHT22;20426;48.372;10.888;2023-05-14T00:16:43;11.50;99.90
34153;DHT22;20426;48.372;10.888;2023-05-14T00:17:13;11.50;99.90
34153;DHT22;20426;48.372;10.888;2023-05-14T00:17:44;11.60;99.90
34153;DHT22;20426;48.372;10.888;2023-05-14T00:18:15;11.60;99.90
34153;DHT22;20426;48.372;10.888;2023-05-14T00:18:46;11.50;99.90
34153;DHT22;20426;48.372;10.888;2023-05-14T00:19:17;11.60;99.90
34153;DHT22;20426;48.372;10.888;2023-05-14T00:19:48;11.60;99.90
34153;DHT22;20426;48.372;10.888;2023-05-14T00:20:18;11.60;99.90
34153;DHT22;20426;48.372;10.888;2023-05-14T00:20:49;11.60;99.90
34153;DHT22;20426;48.372;10.888;2023-05-14T00:21:24;11.60;99.90
34153;DHT22;20426;48.372;10.888;2023-05-14T00:21:54;11.60;99.90
34153;DHT22;20426;48.372;10.888;2023-05-14T00:22:25;11.60;99.90
34153;DHT22;20426;48.372;10.888;2023-05-14T00:22:55;11.60;99.90
34153;DHT22;20426;48.372;10.888;2023-05-14T00:23:26;11.60;99.90
34153;DHT22;20426;48.372;10.888;2023-05-14T00:23:57;11.60;99.90
34153;DHT22;20426;48.372;10.888;2023-05-14T00:24:28;11.60;99.90
34153;DHT22;20426;48.372;10.888;2023-05-14T00:24:58;11.60;99.90
34153;DHT22;20426;48.372;10.888;2023-05-14T00:25:29;11.50;99.90
34153;DHT22;20426;48.372;10.888;2023-05-14T00:26:00;11.60;99.90
34153;DHT22;20426;48.372;10.888;2023-05-14T00:26:30;11.60;99.90
34153;DHT22;20426;48.372;10.888;2023-05-14T00:27:02;11.60;99.90
34153;DHT22;20426;48.372;10.888;2023-05-14T00:27:33;11.50;99.90
34153;DHT22;20426;48.372;10.888;2023-05-14T00:28:04;11.50;99.90
34153;DHT22;20426;48.372;10.888;2023-05-14T00:28:34;11.50;99.90
34153;DHT22;20426;48.372;10.888;2023-05-14T00:29:05;11.50;99.90
34153;DHT22;20426;48.372;10.888;2023-05-14T00:29:36;11.60;99.90
34153;DHT22;20426;48.372;10.888;2023-05-14T00:30:07;11.60;99.90
34153;DHT22;20426;48.372;10.888;2023-05-14T00:30:38;11.50;99.90
34153;DHT22;20426;48.372;10.888;2023-05-14T00:31:09;11.50;99.90
34153;DHT22;20426;48.372;10.888;2023-05-14T00:31:40;11.50;99.90
34153;DHT22;20426;48.372;10.888;2023-05-14T00:32:10;11.50;99.90
34153;DHT22;20426;48.372;10.888;2023-05-14T00:32:41;11.50;99.90
34153;DHT22;20426;48.372;10.888;2023-05-14T00:33:11;11.50;99.90
34153;DHT22;20426;48.372;10.888;2023-05-14T00:33:42;11.50;99.90
34153;DHT22;20426;48.372;10.888;2023-05-14T00:34:13;11.50;99.90
34153;DHT22;20426;48.372;10.888;2023-05-14T00:34:43;11.50;99.90
34153;DHT22;20426;48.372;10.888;2023-05-14T00:35:14;11.50;99.90
34153;DHT22;20426;48.372;10.888;2023-05-14T00:35:45;11.40;99.90
34153;DHT22;20426;48.372;10.888;2023-05-14T00:36:15;11.40;99.90
34153;DHT22;20426;48.372;10.888;2023-05-14T00:36:46;11.40;99.90
34153;DHT22;20426;48.372;10.888;2023-05-14T00:37:17;11.40;99.90
34153;DHT22;20426;48.372;10.888;2023-05-14T00:37:47;11.40;99.90
34153;DHT22;20426;48.372;10.888;2023-05-14T00:38:18;11.40;99.90
34153;DHT22;20426;48.372;10.888;2023-05-14T00:38:49;11.40;99.90
34153;DHT22;20426;48.372;10.888;2023-05-14T00:39:19;11.40;99.90
34153;DHT22;20426;48.372;10.888;2023-05-14T00:39:50;11.40;99.90
34153;DHT22;20426;48.372;10.888;2023-05-14T00:40:25;11.40;99.90
34153;DHT22;20426;48.372;10.888;2023-05-14T00:40:56;11.40;99.90
34153;DHT22;20426;48.372;10.888;2023-05-14T00:41:27;11.40;99.90
34153;DHT22;20426;48.372;10.888;2023-05-14T00:41:58;11.40;99.90
34153;DHT22;20426;48.372;10.888;2023-05-14T00:42:28;11.40;99.90
34153;DHT22;20426;48.372;10.888;2023-05-14T00:42:59;11.40;99.90
34153;DHT22;20426;48.372;10.888;2023-05-14T00:43:30;11.40;99.90
34153;DHT22;20426;48.372;10.888;2023-05-14T00:44:03;11.40;99.90
34153;DHT22;20426;48.372;10.888;2023-05-14T00:44:35;11.40;99.90
34153;DHT22;20426;48.372;10.888;2023-05-14T00:45:06;11.40;99.90
34153;DHT22;20426;48.372;10.888;2023-05-14T00:45:37;11.40;99.90
34153;DHT22;20426;48.372;10.888;2023-05-14T00:46:08;11.50;99.90
34153;DHT22;20426;48.372;10.888;2023-05-14T00:46:39;11.40;99.90
34153;DHT22;20426;48.372;10.888;2023-05-14T00:47:10;11.40;99.90
34153;DHT22;20426;48.372;10.888;2023-05-14T00:47:40;11.40;99.90
34153;DHT22;20426;48.372;10.888;2023-05-14T00:48:11;11.40;99.90
34153;DHT22;20426;48.372;10.888;2023-05-14T00:48:43;11.40;99.90
34153;DHT22;20426;48.372;10.888;2023-05-14T00:49:14;11.40;99.90
34153;DHT22;20426;48.372;10.888;2023-05-14T00:49:45;11.40;99.90
34153;DHT22;20426;48.372;10.888;2023-05-14T00:50:17;11.40;99.90
34153;DHT22;20426;48.372;10.888;2023-05-14T00:50:48;11.40;99.90
34153;DHT22;20426;48.372;10.888;2023-05-14T00:51:20;11.40;99.90
34153;DHT22;20426;48.372;10.888;2023-05-14T00:51:51;11.40;99.90
34153;DHT22;20426;48.372;10.888;2023-05-14T00:52:22;11.40;99.90
34153;DHT22;20426;48.372;10.888;2023-05-14T00:52:53;11.40;99.90
34153;DHT22;20426;48.372;10.888;2023-05-14T00:53:24;11.40;99.90
34153;DHT22;20426;48.372;10.888;2023-05-14T00:53:55;11.40;99.90
34153;DHT22;20426;48.372;10.888;2023-05-14T00:54:26;11.40;99.90
34153;DHT22;20426;48.372;10.888;2023-05-14T00:54:58;11.40;99.90
34153;DHT22;20426;48.372;10.888;2023-05-14T00:55:29;11.40;99.90
34153;DHT22;20426;48.372;10.888;2023-05-14T00:56:00;11.40;99.90
34153;DHT22;20426;48.372;10.888;2023-05-14T00:56:32;11.40;99.90
34153;DHT22;20426;48.372;10.888;2023-05-14T00:57:05;11.40;99.90
34153;DHT22;20426;48.372;10.888;2023-05-14T00:57:36;11.50;99.90
34153;DHT22;20426;48.372;10.888;2023-05-14T00:58:09;11.40;99.90
34153;DHT22;20426;48.372;10.888;2023-05-14T00:58:40;11.40;99.90
34153;DHT22;20426;48.372;10.888;2023-05-14T00:59:11;11.50;99.90
34153;DHT22;20426;48.372;10.888;2023-05-14T00:59:41;11.40;99.90
34153;DHT22;20426;48.372;10.888;2023-05-14T01:00:12;11.50;99.90
34153;DHT22;20426;48.372;10.888;2023-05-14T01:00:43;11.50;99.90
34153;DHT22;20426;48.372;10.888;2023-05-14T01:01:14;11.50;99.90
34153;DHT22;20426;48.372;10.888;2023-05-14T01:01:45;11.50;99.90
34153;DHT22;20426;48.372;10.888;2023-05-14T01:02:16;11.50;99.90
34153;DHT22;20426;48.372;10.888;2023-05-14T01:02:47;11.50;99.90
34153;DHT22;20426;48.372;10.888;2023-05-14T01:03:17;11.50;99.90
34153;DHT22;20426;48.372;10.888;2023-05-14T01:03:48;11.50;99.90
34153;DHT22;20426;48.372;10.888;2023-05-14T01:04:19;11.50;99.90
34153;DHT22;20426;48.372;10.888;2023-05-14T01:04:50;11.50;99.90
34153;DHT22;20426;48.372;10.888;2023-05-14T01:05:23;11.50;99.90
34153;DHT22;20426;48.372;10.888;2023-05-14T01:07:57;11.40;99.90
34153;DHT22;20426;48.372;10.888;2023-05-14T01:08:26;11.40;99.90
34153;DHT22;20426;48.372;10.888;2023-05-14T01:11:19;11.30;99.90
34153;DHT22;20426;48.372;10.888;2023-05-14T01:12:46;11.30;99.90
34153;DHT22;20426;48.372;10.888;2023-05-14T01:15:28;11.30;99.90
34153;DHT22;20426;48.372;10.888;2023-05-14T01:16:01;11.30;99.90
34153;DHT22;20426;48.372;10.888;2023-05-14T01:16:35;11.30;99.90
34153;DHT22;20426;48.372;10.888;2023-05-14T01:17:09;11.30;99.90
34153;DHT22;20426;48.372;10.888;2023-05-14T01:17:45;11.40;99.90
34153;DHT22;20426;48.372;10.888;2023-05-14T01:18:18;11.40;99.90
34153;DHT22;20426;48.372;10.888;2023-05-14T01:18:49;11.40;99.90
34153;DHT22;20426;48.372;10.888;2023-05-14T01:19:41;11.40;99.90
34153;DHT22;20426;48.372;10.888;2023-05-14T01:20:12;11.40;99.90
34153;DHT22;20426;48.372;10.888;2023-05-14T01:20:44;11.40;99.90
34153;DHT22;20426;48.372;10.888;2023-05-14T01:21:24;11.30;99.90
34153;DHT22;20426;48.372;10.888;2023-05-14T01:21:55;11.30;99.90
34153;DHT22;20426;48.372;10.888;2023-05-14T01:22:25;11.40;99.90
34153;DHT22;20426;48.372;10.888;2023-05-14T01:22:56;11.30;99.90
34153;DHT22;20426;48.372;10.888;2023-05-14T01:23:27;11.30;99.90
34153;DHT22;20426;48.372;10.888;2023-05-14T01:23:57;11.30;99.90
34153;DHT22;20426;48.372;10.888;2023-05-14T01:24:28;11.30;99.90
34153;DHT22;20426;48.372;10.888;2023-05-14T01:24:59;11.30;99.90
34153;DHT22;20426;48.372;10.888;2023-05-14T01:25:30;11.30;99.90
34153;DHT22;20426;48.372;10.888;2023-05-14T01:26:01;11.30;99.90
34153;DHT22;20426;48.372;10.888;2023-05-14T01:26:32;11.40;99.90
34153;DHT22;20426;48.372;10.888;2023-05-14T01:27:13;11.30;99.90
34153;DHT22;20426;48.372;10.888;2023-05-14T01:28:03;11.40;99.90
34153;DHT22;20426;48.372;10.888;2023-05-14T01:28:36;11.40;99.90
34153;DHT22;20426;48.372;10.888;2023-05-14T01:29:42;11.40;99.90
34153;DHT22;20426;48.372;10.888;2023-05-14T01:30:28;11.40;99.90
34153;DHT22;20426;48.372;10.888;2023-05-14T01:31:13;11.40;99.90
34153;DHT22;20426;48.372;10.888;2023-05-14T01:31:46;11.40;99.90
34153;DHT22;20426;48.372;10.888;2023-05-14T01:32:19;11.40;99.90
34153;DHT22;20426;48.372;10.888;2023-05-14T01:32:56;11.40;99.90
34153;DHT22;20426;48.372;10.888;2023-05-14T01:33:28;11.40;99.90
34153;DHT22;20426;48.372;10.888;2023-05-14T01:34:01;11.40;99.90
34153;DHT22;20426;48.372;10.888;2023-05-14T01:34:35;11.40;99.90
34153;DHT22;20426;48.372;10.888;2023-05-14T01:35:07;11.40;99.90
34153;DHT22;20426;48.372;10.888;2023-05-14T01:35:39;11.40;99.90
34153;DHT22;20426;48.372;10.888;2023-05-14T01:36:10;11.40;99.90
34153;DHT22;20426;48.372;10.888;2023-05-14T01:36:42;11.40;99.90
34153;DHT22;20426;48.372;10.888;2023-05-14T01:37:14;11.40;99.90
34153;DHT22;20426;48.372;10.888;2023-05-14T01:37:46;11.40;99.90
34153;DHT22;20426;48.372;10.888;2023-05-14T01:38:19;11.40;99.90
34153;DHT22;20426;48.372;10.888;2023-05-14T01:38:50;11.40;99.90
34153;DHT22;20426;48.372;10.888;2023-05-14T01:39:24;11.50;99.90
34153;DHT22;20426;48.372;10.888;2023-05-14T01:39:55;11.50;99.90
34153;DHT22;20426;48.372;10.888;2023-05-14T01:40:27;11.40;99.90
34153;DHT22;20426;48.372;10.888;2023-05-14T01:40:58;11.40;99.90
34153;DHT22;20426;48.372;10.888;2023-05-14T01:41:31;11.40;99.90
34153;DHT22;20426;48.372;10.888;2023-05-14T01:42:03;11.40;99.90
34153;DHT22;20426;48.372;10.888;2023-05-14T01:42:34;11.50;99.90
34153;DHT22;20426;48.372;10.888;2023-05-14T01:43:06;11.50;99.90
34153;DHT22;20426;48.372;10.888;2023-05-14T01:43:37;11.40;99.90
34153;DHT22;20426;48.372;10.888;2023-05-14T01:44:08;11.40;99.90
34153;DHT22;20426;48.372;10.888;2023-05-14T01:44:39;11.40;99.90
34153;DHT22;20426;48.372;10.888;2023-05-14T01:45:10;11.40;99.90
34153;DHT22;20426;48.372;10.888;2023-05-14T01:45:41;11.40;99.90
34153;DHT22;20426;48.372;10.888;2023-05-14T01:46:15;11.40;99.90
34153;DHT22;20426;48.372;10.888;2023-05-14T01:46:47;11.40;99.90
34153;DHT22;20426;48.372;10.888;2023-05-14T01:47:17;11.40;99.90
34153;DHT22;20426;48.372;10.888;2023-05-14T01:47:49;11.30;99.90
34153;DHT22;20426;48.372;10.888;2023-05-14T01:48:20;11.30;99.90
34153;DHT22;20426;48.372;10.888;2023-05-14T01:48:50;11.30;99.90
34153;DHT22;20426;48.372;10.888;2023-05-14T01:49:21;11.30;99.90
34153;DHT22;20426;48.372;10.888;2023-05-14T01:49:52;11.30;99.90
34153;DHT22;20426;48.372;10.888;2023-05-14T01:50:23;11.30;99.90
34153;DHT22;20426;48.372;10.888;2023-05-14T01:50:53;11.30;99.90
34153;DHT22;20426;48.372;10.888;2023-05-14T01:51:24;11.30;99.90
34153;DHT22;20426;48.372;10.888;2023-05-14T01:51:55;11.30;99.90
34153;DHT22;20426;48.372;10.888;2023-05-14T01:52:26;11.30;99.90
34153;DHT22;20426;48.372;10.888;2023-05-14T01:52:56;11.30;99.90
34153;DHT22;20426;48.372;10.888;2023-05-14T01:53:27;11.30;99.90
34153;DHT22;20426;48.372;10.888;2023-05-14T01:53:58;11.30;99.90
34153;DHT22;20426;48.372;10.888;2023-05-14T01:54:28;11.40;99.90
34153;DHT22;20426;48.372;10.888;2023-05-14T01:55:00;11.30;99.90
34153;DHT22;20426;48.372;10.888;2023-05-14T01:55:30;11.30;99.90
34153;DHT22;20426;48.372;10.888;2023-05-14T01:56:01;11.30;99.90
34153;DHT22;20426;48.372;10.888;2023-05-14T01:56:32;11.40;99.90
34153;DHT22;20426;48.372;10.888;2023-05-14T01:57:02;11.30;99.90
34153;DHT22;20426;48.372;10.888;2023-05-14T01:57:33;11.30;99.90
34153;DHT22;20426;48.372;10.888;2023-05-14T01:58:04;11.30;99.90
34153;DHT22;20426;48.372;10.888;2023-05-14T01:58:35;11.40;99.90
34153;DHT22;20426;48.372;10.888;2023-05-14T01:59:05;11.40;99.90
34153;DHT22;20426;48.372;10.888;2023-05-14T01:59:36;11.30;99.90
34153;DHT22;20426;48.372;10.888;2023-05-14T02:00:07;11.40;99.90
34153;DHT22;20426;48.372;10.888;2023-05-14T02:00:38;11.40;99.90
34153;DHT22;20426;48.372;10.888;2023-05-14T02:01:09;11.40;99.90
34153;DHT22;20426;48.372;10.888;2023-05-14T02:01:40;11.40;99.90
34153;DHT22;20426;48.372;10.888;2023-05-14T02:02:10;11.40;99.90
34153;DHT22;20426;48.372;10.888;2023-05-14T02:02:41;11.40;99.90
34153;DHT22;20426;48.372;10.888;2023-05-14T02:03:12;11.40;99.90
34153;DHT22;20426;48.372;10.888;2023-05-14T02:03:43;11.50;99.90
34153;DHT22;20426;48.372;10.888;2023-05-14T02:04:13;11.50;99.90
34153;DHT22;20426;48.372;10.888;2023-05-14T02:04:44;11.50;99.90
34153;DHT22;20426;48.372;10.888;2023-05-14T02:05:15;11.50;99.90
34153;DHT22;20426;48.372;10.888;2023-05-14T02:05:45;11.50;99.90
34153;DHT22;20426;48.372;10.888;2023-05-14T02:06:16;11.50;99.90
34153;DHT22;20426;48.372;10.888;2023-05-14T02:06:47;11.40;99.90
34153;DHT22;20426;48.372;10.888;2023-05-14T02:07:18;11.40;99.90
34153;DHT22;20426;48.372;10.888;2023-05-14T02:07:48;11.40;99.90
34153;DHT22;20426;48.372;10.888;2023-05-14T02:08:19;11.40;99.90
34153;DHT22;20426;48.372;10.888;2023-05-14T02:08:50;11.40;99.90
34153;DHT22;20426;48.372;10.888;2023-05-14T02:09:20;11.40;99.90
34153;DHT22;20426;48.372;10.888;2023-05-14T02:09:51;11.40;99.90
34153;DHT22;20426;48.372;10.888;2023-05-14T02:10:22;11.40;99.90
34153;DHT22;20426;48.372;10.888;2023-05-14T02:10:53;11.40;99.90
34153;DHT22;20426;48.372;10.888;2023-05-14T02:11:23;11.30;99.90
34153;DHT22;20426;48.372;10.888;2023-05-14T02:11:54;11.30;99.90
34153;DHT22;20426;48.372;10.888;2023-05-14T02:12:24;11.30;99.90
34153;DHT22;20426;48.372;10.888;2023-05-14T02:12:55;11.30;99.90
34153;DHT22;20426;48.372;10.888;2023-05-14T02:13:26;11.30;99.90
34153;DHT22;20426;48.372;10.888;2023-05-14T02:13:57;11.30;99.90
34153;DHT22;20426;48.372;10.888;2023-05-14T02:14:27;11.40;99.90
34153;DHT22;20426;48.372;10.888;2023-05-14T02:14:58;11.40;99.90
34153;DHT22;20426;48.372;10.888;2023-05-14T02:15:29;11.40;99.90
34153;DHT22;20426;48.372;10.888;2023-05-14T02:16:00;11.40;99.90
34153;DHT22;20426;48.372;10.888;2023-05-14T02:16:30;11.40;99.90
34153;DHT22;20426;48.372;10.888;2023-05-14T02:17:01;11.40;99.90
34153;DHT22;20426;48.372;10.888;2023-05-14T02:17:32;11.40;99.90
34153;DHT22;20426;48.372;10.888;2023-05-14T02:18:03;11.40;99.90
34153;DHT22;20426;48.372;10.888;2023-05-14T02:18:34;11.40;99.90
34153;DHT22;20426;48.372;10.888;2023-05-14T02:19:05;11.40;99.90
34153;DHT22;20426;48.372;10.888;2023-05-14T02:19:35;11.40;99.90
34153;DHT22;20426;48.372;10.888;2023-05-14T02:20:06;11.40;99.90
34153;DHT22;20426;48.372;10.888;2023-05-14T02:20:39;11.40;99.90
34153;DHT22;20426;48.372;10.888;2023-05-14T02:21:10;11.50;99.90
34153;DHT22;20426;48.372;10.888;2023-05-14T02:21:40;11.50;99.90
34153;DHT22;20426;48.372;10.888;2023-05-14T02:22:12;11.50;99.90
34153;DHT22;20426;48.372;10.888;2023-05-14T02:22:42;11.50;99.90
34153;DHT22;20426;48.372;10.888;2023-05-14T02:23:15;11.50;99.90
34153;DHT22;20426;48.372;10.888;2023-05-14T02:23:46;11.50;99.90
34153;DHT22;20426;48.372;10.888;2023-05-14T02:24:18;11.50;99.90
34153;DHT22;20426;48.372;10.888;2023-05-14T02:24:49;11.50;99.90
34153;DHT22;20426;48.372;10.888;2023-05-14T02:25:20;11.50;99.90
34153;DHT22;20426;48.372;10.888;2023-05-14T02:25:51;11.50;99.90
34153;DHT22;20426;48.372;10.888;2023-05-14T02:26:22;11.50;99.90
34153;DHT22;20426;48.372;10.888;2023-05-14T02:26:52;11.50;99.90
34153;DHT22;20426;48.372;10.888;2023-05-14T02:27:23;11.50;99.90
34153;DHT22;20426;48.372;10.888;2023-05-14T02:27:54;11.50;99.90
34153;DHT22;20426;48.372;10.888;2023-05-14T02:28:25;11.50;99.90
34153;DHT22;20426;48.372;10.888;2023-05-14T02:28:55;11.50;99.90
34153;DHT22;20426;48.372;10.888;2023-05-14T02:29:26;11.50;99.90
34153;DHT22;20426;48.372;10.888;2023-05-14T02:29:57;11.50;99.90
34153;DHT22;20426;48.372;10.888;2023-05-14T02:30:30;11.50;99.90
34153;DHT22;20426;48.372;10.888;2023-05-14T02:31:00;11.50;99.90
34153;DHT22;20426;48.372;10.888;2023-05-14T02:31:31;11.50;99.90
34153;DHT22;20426;48.372;10.888;2023-05-14T02:32:02;11.50;99.90
34153;DHT22;20426;48.372;10.888;2023-05-14T02:32:33;11.50;99.90
34153;DHT22;20426;48.372;10.888;2023-05-14T02:33:04;11.50;99.90
34153;DHT22;20426;48.372;10.888;2023-05-14T02:33:34;11.50;99.90
34153;DHT22;20426;48.372;10.888;2023-05-14T02:34:05;11.50;99.90
34153;DHT22;20426;48.372;10.888;2023-05-14T02:34:36;11.50;99.90
34153;DHT22;20426;48.372;10.888;2023-05-14T02:35:08;11.50;99.90
34153;DHT22;20426;48.372;10.888;2023-05-14T02:35:38;11.50;99.90
34153;DHT22;20426;48.372;10.888;2023-05-14T02:36:09;11.40;99.90
34153;DHT22;20426;48.372;10.888;2023-05-14T02:36:40;11.50;99.90
34153;DHT22;20426;48.372;10.888;2023-05-14T02:37:11;11.50;99.90
34153;DHT22;20426;48.372;10.888;2023-05-14T02:37:41;11.50;99.90
34153;DHT22;20426;48.372;10.888;2023-05-14T02:38:12;11.50;99.90
34153;DHT22;20426;48.372;10.888;2023-05-14T02:38:43;11.50;99.90
34153;DHT22;20426;48.372;10.888;2023-05-14T02:39:13;11.50;99.90
34153;DHT22;20426;48.372;10.888;2023-05-14T02:39:44;11.50;99.90
34153;DHT22;20426;48.372;10.888;2023-05-14T02:40:15;11.50;99.90
34153;DHT22;20426;48.372;10.888;2023-05-14T02:40:45;11.50;99.90
34153;DHT22;20426;48.372;10.888;2023-05-14T02:41:16;11.50;99.90
34153;DHT22;20426;48.372;10.888;2023-05-14T02:41:47;11.50;99.90
34153;DHT22;20426;48.372;10.888;2023-05-14T02:42:17;11.50;99.90
34153;DHT22;20426;48.372;10.888;2023-05-14T02:42:48;11.50;99.90
34153;DHT22;20426;48.372;10.888;2023-05-14T02:43:19;11.50;99.90
34153;DHT22;20426;48.372;10.888;2023-05-14T02:43:49;11.50;99.90
34153;DHT22;20426;48.372;10.888;2023-05-14T02:44:20;11.50;99.90
34153;DHT22;20426;48.372;10.888;2023-05-14T02:44:51;11.40;99.90
34153;DHT22;20426;48.372;10.888;2023-05-14T02:45:21;11.40;99.90
34153;DHT22;20426;48.372;10.888;2023-05-14T02:45:52;11.40;99.90
34153;DHT22;20426;48.372;10.888;2023-05-14T02:46:23;11.40;99.90
34153;DHT22;20426;48.372;10.888;2023-05-14T02:46:53;11.40;99.90
34153;DHT22;20426;48.372;10.888;2023-05-14T02:47:24;11.40;99.90
34153;DHT22;20426;48.372;10.888;2023-05-14T02:47:55;11.40;99.90
34153;DHT22;20426;48.372;10.888;2023-05-14T02:48:26;11.40;99.90
34153;DHT22;20426;48.372;10.888;2023-05-14T02:48:57;11.40;99.90
34153;DHT22;20426;48.372;10.888;2023-05-14T02:49:28;11.30;99.90
34153;DHT22;20426;48.372;10.888;2023-05-14T02:49:58;11.30;99.90
34153;DHT22;20426;48.372;10.888;2023-05-14T02:50:29;11.30;99.90
34153;DHT22;20426;48.372;10.888;2023-05-14T02:50:59;11.30;99.90
34153;DHT22;20426;48.372;10.888;2023-05-14T02:51:30;11.30;99.90
34153;DHT22;20426;48.372;10.888;2023-05-14T02:52:01;11.30;99.90
34153;DHT22;20426;48.372;10.888;2023-05-14T02:52:31;11.30;99.90
34153;DHT22;20426;48.372;10.888;2023-05-14T02:53:02;11.30;99.90
34153;DHT22;20426;48.372;10.888;2023-05-14T02:53:33;11.20;99.90
34153;DHT22;20426;48.372;10.888;2023-05-14T02:54:04;11.30;99.90
34153;DHT22;20426;48.372;10.888;2023-05-14T02:54:35;11.20;99.90
34153;DHT22;20426;48.372;10.888;2023-05-14T02:55:06;11.30;99.90
34153;DHT22;20426;48.372;10.888;2023-05-14T02:55:36;11.30;99.90
34153;DHT22;20426;48.372;10.888;2023-05-14T02:56:07;11.20;99.90
34153;DHT22;20426;48.372;10.888;2023-05-14T02:56:38;11.20;99.90
34153;DHT22;20426;48.372;10.888;2023-05-14T02:57:08;11.20;99.90
34153;DHT22;20426;48.372;10.888;2023-05-14T02:57:39;11.30;99.90
34153;DHT22;20426;48.372;10.888;2023-05-14T02:58:10;11.20;99.90
34153;DHT22;20426;48.372;10.888;2023-05-14T02:58:40;11.20;99.90
34153;DHT22;20426;48.372;10.888;2023-05-14T02:59:11;11.20;99.90
34153;DHT22;20426;48.372;10.888;2023-05-14T02:59:42;11.20;99.90
34153;DHT22;20426;48.372;10.888;2023-05-14T03:00:13;11.20;99.90
34153;DHT22;20426;48.372;10.888;2023-05-14T03:00:43;11.20;99.90
34153;DHT22;20426;48.372;10.888;2023-05-14T03:01:14;11.20;99.90
34153;DHT22;20426;48.372;10.888;2023-05-14T03:01:45;11.10;99.90
34153;DHT22;20426;48.372;10.888;2023-05-14T03:02:16;11.10;99.90
34153;DHT22;20426;48.372;10.888;2023-05-14T03:02:47;11.10;99.90
34153;DHT22;20426;48.372;10.888;2023-05-14T03:03:18;11.10;99.90
34153;DHT22;20426;48.372;10.888;2023-05-14T03:03:49;11.10;99.90
34153;DHT22;20426;48.372;10.888;2023-05-14T03:04:20;11.10;99.90
34153;DHT22;20426;48.372;10.888;2023-05-14T03:04:50;11.10;99.90
34153;DHT22;20426;48.372;10.888;2023-05-14T03:05:21;11.10;99.90
34153;DHT22;20426;48.372;10.888;2023-05-14T03:05:52;11.10;99.90
34153;DHT22;20426;48.372;10.888;2023-05-14T03:06:23;11.10;99.90
34153;DHT22;20426;48.372;10.888;2023-05-14T03:06:53;11.10;99.90
34153;DHT22;20426;48.372;10.888;2023-05-14T03:07:24;11.10;99.90
34153;DHT22;20426;48.372;10.888;2023-05-14T03:07:55;11.10;99.90
34153;DHT22;20426;48.372;10.888;2023-05-14T03:08:25;11.10;99.90
34153;DHT22;20426;48.372;10.888;2023-05-14T03:08:56;11.10;99.90
34153;DHT22;20426;48.372;10.888;2023-05-14T03:09:27;11.10;99.90
34153;DHT22;20426;48.372;10.888;2023-05-14T03:09:57;11.10;99.90
34153;DHT22;20426;48.372;10.888;2023-05-14T03:10:29;11.10;99.90
34153;DHT22;20426;48.372;10.888;2023-05-14T03:11:02;11.10;99.90
34153;DHT22;20426;48.372;10.888;2023-05-14T03:11:33;11.10;99.90
34153;DHT22;20426;48.372;10.888;2023-05-14T03:12:04;11.10;99.90
34153;DHT22;20426;48.372;10.888;2023-05-14T03:12:34;11.10;99.90
34153;DHT22;20426;48.372;10.888;2023-05-14T03:13:05;11.10;99.90
34153;DHT22;20426;48.372;10.888;2023-05-14T03:13:36;11.00;99.90
34153;DHT22;20426;48.372;10.888;2023-05-14T03:14:06;11.00;99.90
34153;DHT22;20426;48.372;10.888;2023-05-14T03:14:37;11.00;99.90
34153;DHT22;20426;48.372;10.888;2023-05-14T03:15:08;11.00;99.90
34153;DHT22;20426;48.372;10.888;2023-05-14T03:15:39;11.00;99.90
34153;DHT22;20426;48.372;10.888;2023-05-14T03:16:10;10.90;99.90
34153;DHT22;20426;48.372;10.888;2023-05-14T03:16:40;11.00;99.90
34153;DHT22;20426;48.372;10.888;2023-05-14T03:17:11;11.00;99.90
34153;DHT22;20426;48.372;10.888;2023-05-14T03:17:42;11.00;99.90
34153;DHT22;20426;48.372;10.888;2023-05-14T03:18:13;10.90;99.90
34153;DHT22;20426;48.372;10.888;2023-05-14T03:18:44;10.90;99.90
34153;DHT22;20426;48.372;10.888;2023-05-14T03:19:15;10.90;99.90
34153;DHT22;20426;48.372;10.888;2023-05-14T03:19:45;10.90;99.90
34153;DHT22;20426;48.372;10.888;2023-05-14T03:20:16;10.80;99.90
34153;DHT22;20426;48.372;10.888;2023-05-14T03:20:47;10.90;99.90
34153;DHT22;20426;48.372;10.888;2023-05-14T03:21:17;10.90;99.90
34153;DHT22;20426;48.372;10.888;2023-05-14T03:21:48;10.90;99.90
34153;DHT22;20426;48.372;10.888;2023-05-14T03:22:19;10.90;99.90